CZFM/ZFM METAR and TAF weather

Enter ICAO airport designator
Station Type Date Time Source
CZFM METAR 2020/07/02 18:00 UTC NOAA

CZFM 021800Z 01004KT 320V030 10SM OVC017 08/06 A3024 RMK SC8 CIG RAG SLP244


Station Type Date Time Source
CZFM Decoded METAR 2020/07/02 18:00 UTC NOAA

Fort Mcpherson Airport, Canada (CZFM) 67-24N 134-51W
Jul 02, 2020 - 02:00 PM EDT / 2020.07.02 1800 UTC
Wind: from the N (010 degrees) at 5 MPH (4 KT) (direction variable):0
Visibility: 10 mile(s):0
Sky conditions: overcast
Temperature: 46 F (8 C)
Dew Point: 42 F (6 C)
Relative Humidity: 87%
Pressure (altimeter): 30.24 in. Hg (1024 hPa)
ob: CZFM 021800Z 01004KT 320V030 10SM OVC017 08/06 A3024 RMK SC8 CIG RAG SLP244
cycle: 18

Station Type Date Time Source
CZFM TAF 2020/07/02 15:00 UTC NOAA

TAF CZFM 021438Z 0215/0223 35005KT P6SM BKN020 OVC030
TEMPO 0215/0223 SCT020 BKN030
BECMG 0217/0219 36010KT
RMK NXT FCST BY 021900Z

Example: see airport list